sensor_id;sensor_type;location;lat;lon;timestamp;P1;durP1;ratioP1;P2;durP2;ratioP2
23346;SDS011;36852;45.466;11.066;2023-04-01T00:01:18;26.73;;;16.02;;
23346;SDS011;36852;45.466;11.066;2023-04-01T00:03:46;28.52;;;15.68;;
23346;SDS011;36852;45.466;11.066;2023-04-01T00:06:15;23.05;;;15.58;;
23346;SDS011;36852;45.466;11.066;2023-04-01T00:08:44;22.80;;;15.45;;
23346;SDS011;36852;45.466;11.066;2023-04-01T00:11:13;21.70;;;15.32;;
23346;SDS011;36852;45.466;11.066;2023-04-01T00:13:42;24.25;;;14.78;;
23346;SDS011;36852;45.466;11.066;2023-04-01T00:16:11;27.02;;;15.38;;
23346;SDS011;36852;45.466;11.066;2023-04-01T00:18:40;29.57;;;15.50;;
23346;SDS011;36852;45.466;11.066;2023-04-01T00:21:10;26.02;;;16.05;;
23346;SDS011;36852;45.466;11.066;2023-04-01T00:23:38;25.68;;;15.65;;
23346;SDS011;36852;45.466;11.066;2023-04-01T00:26:06;23.35;;;15.65;;
23346;SDS011;36852;45.466;11.066;2023-04-01T00:28:35;26.15;;;17.48;;
23346;SDS011;36852;45.466;11.066;2023-04-01T00:31:06;24.40;;;16.32;;
23346;SDS011;36852;45.466;11.066;2023-04-01T00:33:35;26.70;;;17.32;;
23346;SDS011;36852;45.466;11.066;2023-04-01T00:36:08;26.50;;;17.07;;
23346;SDS011;36852;45.466;11.066;2023-04-01T00:38:39;23.90;;;16.87;;
23346;SDS011;36852;45.466;11.066;2023-04-01T00:41:07;26.97;;;17.42;;
23346;SDS011;36852;45.466;11.066;2023-04-01T00:43:39;27.95;;;16.70;;
23346;SDS011;36852;45.466;11.066;2023-04-01T00:46:13;27.42;;;16.10;;
23346;SDS011;36852;45.466;11.066;2023-04-01T00:48:42;24.67;;;15.38;;
23346;SDS011;36852;45.466;11.066;2023-04-01T00:51:20;29.32;;;15.60;;
23346;SDS011;36852;45.466;11.066;2023-04-01T00:53:52;26.52;;;15.60;;
23346;SDS011;36852;45.466;11.066;2023-04-01T00:59:21;23.80;;;15.08;;
23346;SDS011;36852;45.466;11.066;2023-04-01T01:01:53;25.45;;;16.10;;
23346;SDS011;36852;45.466;11.066;2023-04-01T01:04:22;22.65;;;15.40;;
23346;SDS011;36852;45.466;11.066;2023-04-01T01:12:25;25.65;;;15.55;;
23346;SDS011;36852;45.466;11.066;2023-04-01T01:15:01;22.87;;;14.38;;
23346;SDS011;36852;45.466;11.066;2023-04-01T01:20:14;21.45;;;14.98;;
23346;SDS011;36852;45.466;11.066;2023-04-01T01:36:13;22.65;;;16.97;;
23346;SDS011;36852;45.466;11.066;2023-04-01T01:38:42;24.95;;;17.10;;
23346;SDS011;36852;45.466;11.066;2023-04-01T01:41:12;23.38;;;16.40;;
23346;SDS011;36852;45.466;11.066;2023-04-01T01:43:44;26.12;;;15.58;;
23346;SDS011;36852;45.466;11.066;2023-04-01T01:46:33;24.25;;;15.25;;
23346;SDS011;36852;45.466;11.066;2023-04-01T01:49:03;25.85;;;16.25;;
23346;SDS011;36852;45.466;11.066;2023-04-01T01:51:35;27.10;;;16.20;;
23346;SDS011;36852;45.466;11.066;2023-04-01T01:54:04;25.95;;;16.52;;
23346;SDS011;36852;45.466;11.066;2023-04-01T01:56:31;22.73;;;15.20;;
23346;SDS011;36852;45.466;11.066;2023-04-01T01:59:02;21.05;;;15.30;;
23346;SDS011;36852;45.466;11.066;2023-04-01T02:01:32;25.80;;;15.80;;
23346;SDS011;36852;45.466;11.066;2023-04-01T02:04:05;22.93;;;15.25;;
23346;SDS011;36852;45.466;11.066;2023-04-01T02:06:34;27.85;;;16.62;;
23346;SDS011;36852;45.466;11.066;2023-04-01T02:09:06;26.73;;;15.38;;
23346;SDS011;36852;45.466;11.066;2023-04-01T02:11:39;24.05;;;15.25;;
23346;SDS011;36852;45.466;11.066;2023-04-01T02:14:11;22.73;;;14.50;;
23346;SDS011;36852;45.466;11.066;2023-04-01T02:16:58;23.55;;;14.55;;
23346;SDS011;36852;45.466;11.066;2023-04-01T02:19:37;25.35;;;14.90;;
23346;SDS011;36852;45.466;11.066;2023-04-01T02:22:08;21.57;;;14.38;;
23346;SDS011;36852;45.466;11.066;2023-04-01T02:24:38;22.20;;;14.05;;
23346;SDS011;36852;45.466;11.066;2023-04-01T02:27:09;19.80;;;14.23;;
23346;SDS011;36852;45.466;11.066;2023-04-01T02:29:38;30.92;;;16.75;;
23346;SDS011;36852;45.466;11.066;2023-04-01T02:32:07;25.15;;;16.48;;
23346;SDS011;36852;45.466;11.066;2023-04-01T02:34:37;28.85;;;18.52;;
23346;SDS011;36852;45.466;11.066;2023-04-01T02:37:05;29.50;;;17.17;;
23346;SDS011;36852;45.466;11.066;2023-04-01T02:39:34;27.98;;;15.65;;
23346;SDS011;36852;45.466;11.066;2023-04-01T02:42:03;22.60;;;14.78;;
23346;SDS011;36852;45.466;11.066;2023-04-01T02:44:32;27.87;;;15.68;;
23346;SDS011;36852;45.466;11.066;2023-04-01T02:46:59;27.07;;;16.65;;
23346;SDS011;36852;45.466;11.066;2023-04-01T02:49:27;30.55;;;16.95;;
23346;SDS011;36852;45.466;11.066;2023-04-01T02:51:55;30.00;;;17.15;;
23346;SDS011;36852;45.466;11.066;2023-04-01T02:54:23;28.15;;;18.17;;
23346;SDS011;36852;45.466;11.066;2023-04-01T02:56:51;30.10;;;19.15;;
23346;SDS011;36852;45.466;11.066;2023-04-01T02:59:19;29.50;;;19.25;;
23346;SDS011;36852;45.466;11.066;2023-04-01T03:01:46;27.90;;;16.70;;
23346;SDS011;36852;45.466;11.066;2023-04-01T03:04:15;26.10;;;17.87;;
23346;SDS011;36852;45.466;11.066;2023-04-01T03:06:43;26.30;;;17.48;;
23346;SDS011;36852;45.466;11.066;2023-04-01T03:09:19;28.52;;;17.85;;
23346;SDS011;36852;45.466;11.066;2023-04-01T03:11:47;25.20;;;17.57;;
23346;SDS011;36852;45.466;11.066;2023-04-01T03:14:16;30.70;;;19.00;;
23346;SDS011;36852;45.466;11.066;2023-04-01T03:16:44;27.85;;;17.85;;
23346;SDS011;36852;45.466;11.066;2023-04-01T03:19:12;29.55;;;18.12;;
23346;SDS011;36852;45.466;11.066;2023-04-01T03:21:39;28.70;;;16.50;;
23346;SDS011;36852;45.466;11.066;2023-04-01T03:24:07;24.72;;;17.42;;
23346;SDS011;36852;45.466;11.066;2023-04-01T03:26:35;29.07;;;16.87;;
23346;SDS011;36852;45.466;11.066;2023-04-01T03:29:05;25.35;;;16.77;;
23346;SDS011;36852;45.466;11.066;2023-04-01T03:31:33;30.52;;;16.85;;
23346;SDS011;36852;45.466;11.066;2023-04-01T03:34:04;24.35;;;15.58;;
23346;SDS011;36852;45.466;11.066;2023-04-01T03:36:32;29.23;;;17.23;;
23346;SDS011;36852;45.466;11.066;2023-04-01T03:39:00;26.85;;;17.85;;
23346;SDS011;36852;45.466;11.066;2023-04-01T03:41:30;25.08;;;16.25;;
23346;SDS011;36852;45.466;11.066;2023-04-01T03:43:58;32.42;;;18.02;;
23346;SDS011;36852;45.466;11.066;2023-04-01T03:46:28;28.00;;;17.67;;
23346;SDS011;36852;45.466;11.066;2023-04-01T03:48:57;30.48;;;17.40;;
23346;SDS011;36852;45.466;11.066;2023-04-01T03:51:24;25.88;;;17.35;;
23346;SDS011;36852;45.466;11.066;2023-04-01T03:53:53;25.50;;;15.50;;
23346;SDS011;36852;45.466;11.066;2023-04-01T03:56:20;24.43;;;15.20;;
23346;SDS011;36852;45.466;11.066;2023-04-01T03:58:49;23.95;;;15.28;;
23346;SDS011;36852;45.466;11.066;2023-04-01T04:01:17;24.30;;;15.15;;
23346;SDS011;36852;45.466;11.066;2023-04-01T04:03:50;22.90;;;14.47;;
23346;SDS011;36852;45.466;11.066;2023-04-01T04:06:18;23.47;;;15.30;;
23346;SDS011;36852;45.466;11.066;2023-04-01T04:08:47;22.70;;;14.90;;
23346;SDS011;36852;45.466;11.066;2023-04-01T04:11:14;27.17;;;15.03;;
23346;SDS011;36852;45.466;11.066;2023-04-01T04:13:42;22.82;;;14.73;;
23346;SDS011;36852;45.466;11.066;2023-04-01T04:16:10;23.92;;;15.23;;
23346;SDS011;36852;45.466;11.066;2023-04-01T04:18:40;26.37;;;14.93;;
23346;SDS011;36852;45.466;11.066;2023-04-01T04:21:13;22.58;;;14.35;;
23346;SDS011;36852;45.466;11.066;2023-04-01T04:23:42;24.12;;;14.85;;
23346;SDS011;36852;45.466;11.066;2023-04-01T04:26:13;21.42;;;15.20;;
23346;SDS011;36852;45.466;11.066;2023-04-01T04:28:44;25.00;;;17.45;;
23346;SDS011;36852;45.466;11.066;2023-04-01T04:31:18;24.63;;;15.68;;
23346;SDS011;36852;45.466;11.066;2023-04-01T04:33:48;26.90;;;16.20;;
23346;SDS011;36852;45.466;11.066;2023-04-01T04:36:16;24.60;;;15.43;;
23346;SDS011;36852;45.466;11.066;2023-04-01T04:38:45;22.30;;;16.10;;
23346;SDS011;36852;45.466;11.066;2023-04-01T04:41:14;26.37;;;15.15;;
23346;SDS011;36852;45.466;11.066;2023-04-01T04:43:54;25.12;;;15.43;;
23346;SDS011;36852;45.466;11.066;2023-04-01T04:48:51;21.05;;;15.43;;
23346;SDS011;36852;45.466;11.066;2023-04-01T04:51:19;22.75;;;14.78;;
23346;SDS011;36852;45.466;11.066;2023-04-01T04:53:48;22.75;;;14.30;;
23346;SDS011;36852;45.466;11.066;2023-04-01T04:56:19;30.12;;;15.35;;
23346;SDS011;36852;45.466;11.066;2023-04-01T04:58:50;28.35;;;14.78;;
23346;SDS011;36852;45.466;11.066;2023-04-01T05:01:21;21.27;;;14.18;;
23346;SDS011;36852;45.466;11.066;2023-04-01T05:03:49;25.97;;;16.35;;
23346;SDS011;36852;45.466;11.066;2023-04-01T05:06:17;31.42;;;16.55;;
23346;SDS011;36852;45.466;11.066;2023-04-01T05:08:47;30.92;;;15.43;;
23346;SDS011;36852;45.466;11.066;2023-04-01T05:11:17;24.82;;;15.75;;
23346;SDS011;36852;45.466;11.066;2023-04-01T05:13:46;25.12;;;15.78;;
23346;SDS011;36852;45.466;11.066;2023-04-01T05:16:16;24.87;;;14.95;;
23346;SDS011;36852;45.466;11.066;2023-04-01T05:18:45;27.42;;;14.70;;
23346;SDS011;36852;45.466;11.066;2023-04-01T05:21:14;24.67;;;14.13;;
23346;SDS011;36852;45.466;11.066;2023-04-01T05:23:45;26.70;;;13.90;;
23346;SDS011;36852;45.466;11.066;2023-04-01T05:26:14;25.37;;;15.28;;
23346;SDS011;36852;45.466;11.066;2023-04-01T05:28:42;24.45;;;15.05;;
23346;SDS011;36852;45.466;11.066;2023-04-01T05:31:09;23.70;;;13.80;;
23346;SDS011;36852;45.466;11.066;2023-04-01T05:33:40;27.52;;;13.88;;
23346;SDS011;36852;45.466;11.066;2023-04-01T05:36:12;24.32;;;13.40;;
23346;SDS011;36852;45.466;11.066;2023-04-01T05:38:42;26.10;;;13.58;;
23346;SDS011;36852;45.466;11.066;2023-04-01T05:41:11;22.65;;;12.35;;
23346;SDS011;36852;45.466;11.066;2023-04-01T05:43:41;19.52;;;12.58;;
23346;SDS011;36852;45.466;11.066;2023-04-01T05:46:28;19.55;;;11.90;;
23346;SDS011;36852;45.466;11.066;2023-04-01T05:48:57;25.77;;;12.35;;
23346;SDS011;36852;45.466;11.066;2023-04-01T05:51:29;22.65;;;14.68;;
23346;SDS011;36852;45.466;11.066;2023-04-01T05:53:57;20.20;;;12.18;;
23346;SDS011;36852;45.466;11.066;2023-04-01T05:56:25;20.88;;;12.75;;
23346;SDS011;36852;45.466;11.066;2023-04-01T05:58:53;19.75;;;12.18;;
23346;SDS011;36852;45.466;11.066;2023-04-01T06:01:22;19.70;;;12.35;;
23346;SDS011;36852;45.466;11.066;2023-04-01T06:03:50;20.27;;;11.38;;
23346;SDS011;36852;45.466;11.066;2023-04-01T06:06:25;19.67;;;10.98;;
23346;SDS011;36852;45.466;11.066;2023-04-01T06:08:58;15.38;;;10.08;;
23346;SDS011;36852;45.466;11.066;2023-04-01T06:20:56;22.40;;;12.00;;
23346;SDS011;36852;45.466;11.066;2023-04-01T06:26:49;22.13;;;12.50;;
23346;SDS011;36852;45.466;11.066;2023-04-01T06:32:16;19.95;;;11.08;;
23346;SDS011;36852;45.466;11.066;2023-04-01T06:35:35;21.25;;;12.90;;
23346;SDS011;36852;45.466;11.066;2023-04-01T06:38:19;21.23;;;12.20;;
23346;SDS011;36852;45.466;11.066;2023-04-01T06:43:57;23.98;;;13.32;;
23346;SDS011;36852;45.466;11.066;2023-04-01T06:46:48;20.52;;;12.35;;
23346;SDS011;36852;45.466;11.066;2023-04-01T06:50:48;18.80;;;11.03;;
23346;SDS011;36852;45.466;11.066;2023-04-01T06:56:03;23.55;;;11.88;;
23346;SDS011;36852;45.466;11.066;2023-04-01T06:58:40;22.80;;;12.85;;
23346;SDS011;36852;45.466;11.066;2023-04-01T07:01:14;19.85;;;13.13;;
23346;SDS011;36852;45.466;11.066;2023-04-01T07:06:43;19.40;;;13.38;;
23346;SDS011;36852;45.466;11.066;2023-04-01T07:09:06;19.25;;;12.98;;
23346;SDS011;36852;45.466;11.066;2023-04-01T07:12:11;21.07;;;13.55;;
23346;SDS011;36852;45.466;11.066;2023-04-01T07:14:57;27.25;;;17.25;;
23346;SDS011;36852;45.466;11.066;2023-04-01T07:17:28;33.15;;;19.85;;
23346;SDS011;36852;45.466;11.066;2023-04-01T07:22:39;22.98;;;14.68;;
23346;SDS011;36852;45.466;11.066;2023-04-01T07:28:00;23.45;;;14.15;;
23346;SDS011;36852;45.466;11.066;2023-04-01T07:33:29;32.67;;;22.50;;
23346;SDS011;36852;45.466;11.066;2023-04-01T07:36:10;43.08;;;27.52;;
23346;SDS011;36852;45.466;11.066;2023-04-01T07:38:53;61.55;;;36.35;;
23346;SDS011;36852;45.466;11.066;2023-04-01T07:50:22;67.20;;;39.58;;
23346;SDS011;36852;45.466;11.066;2023-04-01T07:58:49;48.48;;;29.25;;
23346;SDS011;36852;45.466;11.066;2023-04-01T08:09:50;56.40;;;33.35;;
23346;SDS011;36852;45.466;11.066;2023-04-01T08:13:05;52.33;;;33.95;;
23346;SDS011;36852;45.466;11.066;2023-04-01T08:18:41;58.30;;;36.23;;
23346;SDS011;36852;45.466;11.066;2023-04-01T08:23:57;61.40;;;40.98;;
23346;SDS011;36852;45.466;11.066;2023-04-01T08:26:34;62.98;;;40.20;;
23346;SDS011;36852;45.466;11.066;2023-04-01T08:29:14;62.98;;;38.60;;
23346;SDS011;36852;45.466;11.066;2023-04-01T08:32:06;60.00;;;38.80;;
23346;SDS011;36852;45.466;11.066;2023-04-01T08:34:25;62.70;;;39.48;;
23346;SDS011;36852;45.466;11.066;2023-04-01T08:37:07;67.90;;;37.95;;
23346;SDS011;36852;45.466;11.066;2023-04-01T08:39:37;60.10;;;37.35;;
23346;SDS011;36852;45.466;11.066;2023-04-01T08:42:11;58.60;;;39.73;;
23346;SDS011;36852;45.466;11.066;2023-04-01T08:47:39;65.85;;;40.12;;
23346;SDS011;36852;45.466;11.066;2023-04-01T08:50:29;61.85;;;38.73;;
23346;SDS011;36852;45.466;11.066;2023-04-01T08:53:35;60.30;;;37.73;;
23346;SDS011;36852;45.466;11.066;2023-04-01T08:56:20;59.38;;;38.13;;
23346;SDS011;36852;45.466;11.066;2023-04-01T08:59:55;59.10;;;37.20;;
23346;SDS011;36852;45.466;11.066;2023-04-01T09:02:30;58.48;;;36.73;;
23346;SDS011;36852;45.466;11.066;2023-04-01T09:04:53;52.90;;;34.93;;
23346;SDS011;36852;45.466;11.066;2023-04-01T09:07:45;64.53;;;36.98;;
23346;SDS011;36852;45.466;11.066;2023-04-01T09:15:41;51.53;;;32.93;;
23346;SDS011;36852;45.466;11.066;2023-04-01T09:44:15;41.13;;;27.00;;
23346;SDS011;36852;45.466;11.066;2023-04-01T09:46:54;38.53;;;26.05;;
23346;SDS011;36852;45.466;11.066;2023-04-01T10:18:41;29.75;;;21.15;;
23346;SDS011;36852;45.466;11.066;2023-04-01T10:54:46;28.02;;;18.27;;
23346;SDS011;36852;45.466;11.066;2023-04-01T11:17:57;22.98;;;16.30;;
23346;SDS011;36852;45.466;11.066;2023-04-01T11:23:33;22.05;;;14.35;;
23346;SDS011;36852;45.466;11.066;2023-04-01T11:34:45;21.65;;;13.85;;
23346;SDS011;36852;45.466;11.066;2023-04-01T11:54:44;12.50;;;9.93;;
23346;SDS011;36852;45.466;11.066;2023-04-01T12:03:14;11.63;;;8.75;;
23346;SDS011;36852;45.466;11.066;2023-04-01T12:06:04;10.82;;;7.97;;
23346;SDS011;36852;45.466;11.066;2023-04-01T12:11:41;11.93;;;8.55;;
23346;SDS011;36852;45.466;11.066;2023-04-01T12:20:09;13.60;;;7.20;;
23346;SDS011;36852;45.466;11.066;2023-04-01T12:22:56;9.73;;;7.60;;
23346;SDS011;36852;45.466;11.066;2023-04-01T12:39:17;7.45;;;4.95;;
23346;SDS011;36852;45.466;11.066;2023-04-01T12:55:53;7.28;;;2.87;;
23346;SDS011;36852;45.466;11.066;2023-04-01T13:15:49;4.37;;;3.22;;
23346;SDS011;36852;45.466;11.066;2023-04-01T13:18:33;3.45;;;2.70;;
23346;SDS011;36852;45.466;11.066;2023-04-01T13:24:00;1.60;;;1.40;;
23346;SDS011;36852;45.466;11.066;2023-04-01T13:26:34;2.15;;;1.52;;
23346;SDS011;36852;45.466;11.066;2023-04-01T13:29:15;1.67;;;1.15;;
23346;SDS011;36852;45.466;11.066;2023-04-01T13:40:21;5.28;;;1.67;;
23346;SDS011;36852;45.466;11.066;2023-04-01T13:43:14;6.83;;;1.62;;
23346;SDS011;36852;45.466;11.066;2023-04-01T14:04:20;2.92;;;1.70;;
23346;SDS011;36852;45.466;11.066;2023-04-01T14:13:01;2.87;;;1.80;;
23346;SDS011;36852;45.466;11.066;2023-04-01T14:20:39;1.90;;;1.70;;
23346;SDS011;36852;45.466;11.066;2023-04-01T14:23:17;3.40;;;2.02;;
23346;SDS011;36852;45.466;11.066;2023-04-01T14:31:14;3.40;;;1.98;;
23346;SDS011;36852;45.466;11.066;2023-04-01T14:39:46;5.65;;;3.50;;
23346;SDS011;36852;45.466;11.066;2023-04-01T14:42:38;5.40;;;2.72;;
23346;SDS011;36852;45.466;11.066;2023-04-01T14:50:39;5.58;;;2.47;;
23346;SDS011;36852;45.466;11.066;2023-04-01T14:58:14;2.17;;;1.70;;
23346;SDS011;36852;45.466;11.066;2023-04-01T15:35:58;2.72;;;1.35;;
23346;SDS011;36852;45.466;11.066;2023-04-01T15:44:34;2.92;;;1.42;;
23346;SDS011;36852;45.466;11.066;2023-04-01T15:46:57;2.10;;;1.42;;
23346;SDS011;36852;45.466;11.066;2023-04-01T15:49:38;2.10;;;1.27;;
23346;SDS011;36852;45.466;11.066;2023-04-01T16:00:44;4.12;;;1.02;;
23346;SDS011;36852;45.466;11.066;2023-04-01T16:17:18;1.60;;;1.15;;
23346;SDS011;36852;45.466;11.066;2023-04-01T16:20:34;1.90;;;1.00;;
23346;SDS011;36852;45.466;11.066;2023-04-01T16:22:45;0.78;;;0.78;;
23346;SDS011;36852;45.466;11.066;2023-04-01T16:30:47;1.72;;;0.90;;
23346;SDS011;36852;45.466;11.066;2023-04-01T16:33:22;1.90;;;0.70;;
23346;SDS011;36852;45.466;11.066;2023-04-01T16:39:02;3.15;;;0.90;;
23346;SDS011;36852;45.466;11.066;2023-04-01T16:44:47;2.17;;;0.68;;
23346;SDS011;36852;45.466;11.066;2023-04-01T16:47:14;1.40;;;0.60;;
23346;SDS011;36852;45.466;11.066;2023-04-01T16:49:53;0.93;;;0.57;;
23346;SDS011;36852;45.466;11.066;2023-04-01T16:55:21;4.47;;;0.57;;
23346;SDS011;36852;45.466;11.066;2023-04-01T16:57:56;4.05;;;0.90;;
23346;SDS011;36852;45.466;11.066;2023-04-01T17:00:30;2.60;;;1.25;;
23346;SDS011;36852;45.466;11.066;2023-04-01T17:11:27;3.77;;;1.10;;
23346;SDS011;36852;45.466;11.066;2023-04-01T17:14:01;2.87;;;1.10;;
23346;SDS011;36852;45.466;11.066;2023-04-01T17:30:54;3.45;;;1.40;;
23346;SDS011;36852;45.466;11.066;2023-04-01T17:36:21;4.92;;;1.92;;
23346;SDS011;36852;45.466;11.066;2023-04-01T17:58:58;6.15;;;3.20;;
23346;SDS011;36852;45.466;11.066;2023-04-01T18:15:21;8.10;;;2.35;;
23346;SDS011;36852;45.466;11.066;2023-04-01T18:18:07;3.77;;;2.10;;
23346;SDS011;36852;45.466;11.066;2023-04-01T18:20:55;3.42;;;2.10;;
23346;SDS011;36852;45.466;11.066;2023-04-01T18:23:46;4.22;;;2.20;;
23346;SDS011;36852;45.466;11.066;2023-04-01T18:26:30;5.40;;;2.30;;
23346;SDS011;36852;45.466;11.066;2023-04-01T18:31:54;6.42;;;1.95;;
23346;SDS011;36852;45.466;11.066;2023-04-01T18:37:23;3.52;;;2.42;;
23346;SDS011;36852;45.466;11.066;2023-04-01T18:39:54;3.95;;;2.50;;
23346;SDS011;36852;45.466;11.066;2023-04-01T18:45:41;6.30;;;2.30;;
23346;SDS011;36852;45.466;11.066;2023-04-01T18:51:01;4.95;;;2.65;;
23346;SDS011;36852;45.466;11.066;2023-04-01T18:53:45;13.55;;;2.83;;
23346;SDS011;36852;45.466;11.066;2023-04-01T18:56:38;8.35;;;2.67;;
23346;SDS011;36852;45.466;11.066;2023-04-01T19:04:23;5.05;;;2.70;;
23346;SDS011;36852;45.466;11.066;2023-04-01T19:07:29;4.00;;;2.37;;
23346;SDS011;36852;45.466;11.066;2023-04-01T19:10:12;5.55;;;2.58;;
23346;SDS011;36852;45.466;11.066;2023-04-01T19:26:05;6.33;;;2.80;;
23346;SDS011;36852;45.466;11.066;2023-04-01T19:39:43;10.65;;;3.52;;
23346;SDS011;36852;45.466;11.066;2023-04-01T19:42:37;4.80;;;2.77;;
23346;SDS011;36852;45.466;11.066;2023-04-01T19:45:20;6.00;;;3.02;;
23346;SDS011;36852;45.466;11.066;2023-04-01T19:50:55;6.12;;;3.30;;
23346;SDS011;36852;45.466;11.066;2023-04-01T19:58:47;5.67;;;3.20;;
23346;SDS011;36852;45.466;11.066;2023-04-01T20:01:41;5.55;;;3.12;;
23346;SDS011;36852;45.466;11.066;2023-04-01T20:04:33;7.17;;;3.98;;
23346;SDS011;36852;45.466;11.066;2023-04-01T20:15:28;7.10;;;5.53;;
23346;SDS011;36852;45.466;11.066;2023-04-01T20:23:48;8.28;;;4.58;;
23346;SDS011;36852;45.466;11.066;2023-04-01T20:26:25;37.38;;;23.32;;
23346;SDS011;36852;45.466;11.066;2023-04-01T20:32:05;6.87;;;3.70;;
23346;SDS011;36852;45.466;11.066;2023-04-01T20:37:23;5.53;;;3.70;;
23346;SDS011;36852;45.466;11.066;2023-04-01T20:40:17;9.33;;;4.60;;
23346;SDS011;36852;45.466;11.066;2023-04-01T20:43:07;13.05;;;4.85;;
23346;SDS011;36852;45.466;11.066;2023-04-01T20:51:04;17.87;;;10.75;;
23346;SDS011;36852;45.466;11.066;2023-04-01T21:07:28;28.75;;;18.17;;
23346;SDS011;36852;45.466;11.066;2023-04-01T21:15:33;29.92;;;19.45;;
23346;SDS011;36852;45.466;11.066;2023-04-01T21:35:04;35.38;;;22.30;;
23346;SDS011;36852;45.466;11.066;2023-04-01T21:41:04;33.10;;;22.15;;
23346;SDS011;36852;45.466;11.066;2023-04-01T21:48:47;32.00;;;20.95;;
23346;SDS011;36852;45.466;11.066;2023-04-01T21:51:26;32.28;;;22.15;;
23346;SDS011;36852;45.466;11.066;2023-04-01T22:05:34;31.80;;;22.25;;
23346;SDS011;36852;45.466;11.066;2023-04-01T22:14:08;29.92;;;21.82;;
23346;SDS011;36852;45.466;11.066;2023-04-01T22:19:32;31.95;;;22.07;;
23346;SDS011;36852;45.466;11.066;2023-04-01T22:22:49;34.18;;;20.72;;
23346;SDS011;36852;45.466;11.066;2023-04-01T22:24:47;32.65;;;21.27;;
23346;SDS011;36852;45.466;11.066;2023-04-01T22:32:42;34.58;;;21.85;;
23346;SDS011;36852;45.466;11.066;2023-04-01T22:38:10;33.23;;;20.97;;
23346;SDS011;36852;45.466;11.066;2023-04-01T22:43:43;30.25;;;19.85;;
23346;SDS011;36852;45.466;11.066;2023-04-01T22:48:54;27.35;;;18.30;;
23346;SDS011;36852;45.466;11.066;2023-04-01T22:51:43;26.10;;;17.50;;
23346;SDS011;36852;45.466;11.066;2023-04-01T22:57:03;23.90;;;15.63;;
23346;SDS011;36852;45.466;11.066;2023-04-01T22:59:35;21.90;;;15.08;;
23346;SDS011;36852;45.466;11.066;2023-04-01T23:02:12;22.65;;;15.30;;
23346;SDS011;36852;45.466;11.066;2023-04-01T23:04:42;23.90;;;15.10;;
23346;SDS011;36852;45.466;11.066;2023-04-01T23:07:30;22.32;;;16.50;;
23346;SDS011;36852;45.466;11.066;2023-04-01T23:10:18;20.80;;;14.90;;
23346;SDS011;36852;45.466;11.066;2023-04-01T23:12:48;20.70;;;14.53;;
23346;SDS011;36852;45.466;11.066;2023-04-01T23:15:19;20.72;;;14.68;;
23346;SDS011;36852;45.466;11.066;2023-04-01T23:18:01;23.67;;;14.83;;
23346;SDS011;36852;45.466;11.066;2023-04-01T23:23:38;23.00;;;15.28;;
23346;SDS011;36852;45.466;11.066;2023-04-01T23:28:52;22.93;;;14.43;;
23346;SDS011;36852;45.466;11.066;2023-04-01T23:31:34;20.62;;;14.03;;
23346;SDS011;36852;45.466;11.066;2023-04-01T23:36:52;21.73;;;15.10;;
23346;SDS011;36852;45.466;11.066;2023-04-01T23:44:48;23.00;;;14.40;;
23346;SDS011;36852;45.466;11.066;2023-04-01T23:47:23;24.87;;;16.80;;
23346;SDS011;36852;45.466;11.066;2023-04-01T23:50:00;22.02;;;15.63;;
23346;SDS011;36852;45.466;11.066;2023-04-01T23:52:31;24.10;;;15.28;;
23346;SDS011;36852;45.466;11.066;2023-04-01T23:57:42;24.45;;;16.25;;
